Track Логвинчук Евгений

Time Latitude Longitude Accuracy (66% radius in meters) Altitude (meters) Speed (km/hour) Bearing (degrees) Battery (%) GPS flag
09:02:20 55.921081 37.361848 4 176 0 179.80125427246 55 1 delete
09:01:44 55.921125 37.361877 4 182 0 179.80125427246 55 1 delete
08:59:02 55.921083 37.361846 4 175 0 289.31420898438 55 1 delete
08:57:56 55.921075 37.361925 6 181 1.1926128864288 169.3134765625 55 1 delete
08:57:52 55.921109 37.361873 4 181 1.3674961328506 101.34572601318 55 1 delete
08:56:16 55.921072 37.361942 4 178 0 41.656494140625 55 1 delete
08:56:03 55.921001 37.362015 4 177 0 41.656494140625 55 1 delete
08:55:55 55.920941 37.362017 6 172 2.7661666870117 45.630950927734 55 1 delete
08:55:53 55.920890 37.361935 4 174 3.6726922988892 47.072845458984 55 1 delete
08:55:51 55.920837 37.361851 6 176 4.3083591461182 49.487407684326 55 1 delete
08:55:50 55.920805 37.361791 6 177 4.2786827087402 52.065948486328 55 1 delete
08:55:48 55.920756 37.361675 6 174 3.7297554016113 58.853527069092 55 1 delete
08:55:46 55.920716 37.361566 4 175 3.811687707901 56.657958984375 55 1 delete
08:55:44 55.920669 37.361451 4 172 4.7128438949585 53.140468597412 55 1 delete
08:55:43 55.920639 37.361381 6 172 4.742199420929 53.846225738525 55 1 delete
08:55:42 55.920612 37.361306 6 173 4.7986826896667 55.318912506104 55 1 delete
08:55:41 55.920588 37.361228 4 173 4.9181380271912 56.714515686035 55 1 delete
08:55:39 55.920553 37.361104 4 177 4.6406755447388 58.253002166748 55 1 delete
08:55:37 55.920509 37.360991 4 178 4.5811982154846 54.685260772705 55 1 delete
08:55:35 55.920455 37.360907 4 179 3.943400144577 11.863922119141 55 1 delete
08:55:33 55.920365 37.360912 6 177 4.8535966873169 350.71493530273 55 1 delete
08:55:32 55.920315 37.360927 6 176 5.2153363227844 354.61853027344 55 1 delete
08:55:31 55.920263 37.360941 4 176 5.2899112701416 357.51425170898 55 1 delete
08:55:30 55.920217 37.360954 4 176 5.3763818740845 358.12161254883 55 1 delete
08:55:29 55.920170 37.360968 4 177 5.2503733634949 358.85589599609 55 1 delete
08:55:28 55.920123 37.360976 4 175 5.0226364135742 0.10370256006718 55 1 delete
08:55:27 55.920074 37.360979 4 175 4.8823289871216 1.0198043584824 55 1 delete
08:55:25 55.919987 37.360988 4 175 4.7531161308289 3.6400051116943 55 1 delete
08:55:24 55.919937 37.360988 4 176 4.7271294593811 5.0577054023743 55 1 delete
08:55:22 55.919846 37.360965 8 176 4.0917882919312 23.144073486328 55 1 delete
08:55:21 55.919803 37.360933 6 176 4.7795443534851 24.083505630493 55 1 delete
08:55:20 55.919755 37.360898 6 176 4.8584222793579 23.714212417603 55 1 delete
08:55:19 55.919705 37.360862 6 177 4.7404584884644 24.50205039978 55 1 delete
08:55:18 55.919657 37.360823 6 176 4.7796297073364 24.613557815552 55 1 delete
08:55:17 55.919606 37.360782 6 175 4.565770149231 25.143859863281 55 1 delete
08:55:16 55.919552 37.360742 6 176 4.5356640815735 26.332540512085 55 1 delete
08:55:15 55.919504 37.360712 6 176 4.4473176002502 28.089841842651 55 1 delete
08:55:13 55.919432 37.360651 6 173 4.0349316596985 31.210313796997 55 1 delete
08:55:11 55.919383 37.360580 6 173 3.782276391983 53.632999420166 55 1 delete
08:55:09 55.919345 37.360491 6 172 4.3961577415466 69.251861572266 55 1 delete
08:55:07 55.919321 37.360335 4 172 5.0471076965332 73.78687286377 55 1 delete
08:55:06 55.919311 37.360253 4 172 5.0682373046875 72.449127197266 55 1 delete
08:55:05 55.919300 37.360174 4 173 5.1297516822815 71.372825622559 55 1 delete
08:55:03 55.919277 37.360034 6 174 4.4664354324341 69.04988861084 55 1 delete
08:55:01 55.919248 37.359892 6 175 4.9529504776001 63.523223876953 55 1 delete
08:55:00 55.919230 37.359818 4 173 5.0520567893982 61.03178024292 55 1 delete
08:54:59 55.919208 37.359742 4 171 4.8828897476196 61.016563415527 55 1 delete
08:54:57 55.919168 37.359607 6 170 5.2098989486694 58.352241516113 55 1 delete
08:54:56 55.919142 37.359532 6 171 5.4448919296265 57.235637664795 55 1 delete
08:54:55 55.919112 37.359447 6 168 5.6798686981201 56.279148101807 55 1 delete